Time;durP1;ratioP1;P1;durP2;ratioP2;P2;SDS_P1;SDS_P2;PMS_P1;PMS_P2;Temp;Humidity;BMP_temperature;BMP_pressure;BME280_temperature;BME280_humidity;BME280_pressure;Samples;Min_cycle;Max_cycle;Signal;HPM_P1;HPM_P2
2023/01/18 05:16:54;;;;;;;;;56.75;43.75;;;;;;;;6487515;39;15216;-60
2023/01/18 05:22:58;;;;;;;;;60.75;48.50;;;;;;;;6490436;39;8974;-61
2023/01/18 05:29:00;;;;;;;;;61.50;49.50;;;;;;;;6490548;39;8880;-61
2023/01/18 05:35:04;;;;;;;;;51.50;45.50;;;;;;;;6486126;39;9020;-62
2023/01/18 05:41:11;;;;;;;;;61.50;51.00;;;;;;;;6489318;39;8901;-60
2023/01/18 05:47:13;;;;;;;;;66.50;53.00;;;;;;;;6490083;46;8878;-62
2023/01/18 05:53:19;;;;;;;;;67.50;55.25;;;;;;;;6489311;31;8981;-60
2023/01/18 05:59:21;;;;;;;;;71.25;55.25;;;;;;;;6490337;39;8842;-61
2023/01/18 06:05:24;;;;;;;;;65.25;52.00;;;;;;;;6489554;39;9103;-59
2023/01/18 06:11:27;;;;;;;;;55.25;48.25;;;;;;;;6488563;39;8947;-60
2023/01/18 06:17:30;;;;;;;;;61.50;51.25;;;;;;;;6490153;31;9006;-59
2023/01/18 06:23:37;;;;;;;;;61.50;47.75;;;;;;;;6489660;39;8885;-60
2023/01/18 06:29:41;;;;;;;;;60.00;52.00;;;;;;;;6489775;31;8933;-61
2023/01/18 06:35:44;;;;;;;;;60.25;52.25;;;;;;;;6489466;31;9502;-60
2023/01/18 06:41:46;;;;;;;;;63.25;53.25;;;;;;;;6488838;39;8932;-60
2023/01/18 06:47:48;;;;;;;;;83.75;61.00;;;;;;;;6490459;39;9679;-64
2023/01/18 06:53:51;;;;;;;;;76.75;60.75;;;;;;;;6488972;39;8996;-62
2023/01/18 06:59:54;;;;;;;;;72.50;58.00;;;;;;;;6490841;46;8871;-60
2023/01/18 07:06:00;;;;;;;;;53.75;46.25;;;;;;;;6490292;39;8934;-62
2023/01/18 07:12:04;;;;;;;;;46.25;41.00;;;;;;;;6489083;46;8987;-60
2023/01/18 07:18:06;;;;;;;;;38.25;34.00;;;;;;;;6489516;39;9361;-59
2023/01/18 07:24:10;;;;;;;;;32.50;31.50;;;;;;;;6490192;39;8959;-61
2023/01/18 07:30:12;;;;;;;;;30.67;26.00;;;;;;;;6490727;31;8994;-60
2023/01/18 07:36:17;;;;;;;;;16.00;12.00;;;;;;;;6488837;31;8922;-60
2023/01/18 07:42:22;;;;;;;;;33.50;28.75;;;;;;;;6489235;39;8981;-61
2023/01/18 07:48:26;;;;;;;;;11.00;10.00;;;;;;;;6489403;39;8966;-62
2023/01/18 07:54:30;;;;;;;;;11.00;10.00;;;;;;;;6489025;39;8954;-61
2023/01/18 08:00:34;;;;;;;;;11.67;11.33;;;;;;;;6489238;39;8937;-62
2023/01/18 08:06:38;;;;;;;;;37.00;29.67;;;;;;;;6488079;31;8946;-62
2023/01/18 08:12:43;;;;;;;;;12.00;11.67;;;;;;;;6486539;31;9025;-63
2023/01/18 08:18:48;;;;;;;;;54.67;47.33;;;;;;;;6486360;31;8930;-61
2023/01/18 08:24:52;;;;;;;;;22.00;16.67;;;;;;;;6486231;39;8910;-60
2023/01/18 08:31:09;;;;;;;;;58.67;46.67;;;;;;;;6488904;31;8926;-62
2023/01/18 08:37:12;;;;;;;;;18.00;17.00;;;;;;;;6487175;31;9135;-60
2023/01/18 08:43:22;;;;;;;;;10.33;10.33;;;;;;;;6485305;39;10061;-62
2023/01/18 08:49:37;;;;;;;;;7.00;2.00;;;;;;;;6488086;31;9090;-61
2023/01/18 08:55:39;;;;;;;;;24.00;22.33;;;;;;;;6486676;46;8936;-61
2023/01/18 09:01:43;;;;;;;;;10.33;8.33;;;;;;;;6489300;46;9047;-61
2023/01/18 09:07:47;;;;;;;;;8.67;7.33;;;;;;;;6484946;39;8950;-60
2023/01/18 09:13:53;;;;;;;;;10.00;9.00;;;;;;;;6488145;46;8943;-61
2023/01/18 09:20:08;;;;;;;;;25.00;21.00;;;;;;;;6487781;31;9693;-61
2023/01/18 09:26:15;;;;;;;;;18.00;17.33;;;;;;;;6486047;39;9003;-63
2023/01/18 09:32:24;;;;;;;;;37.33;33.33;;;;;;;;6488365;31;8970;-64
2023/01/18 09:38:31;;;;;;;;;8.67;8.67;;;;;;;;6485819;46;8989;-64
2023/01/18 09:44:44;;;;;;;;;10.67;10.33;;;;;;;;6487643;46;8876;-62
2023/01/18 09:50:52;;;;;;;;;30.67;28.00;;;;;;;;6486188;39;8984;-61
2023/01/18 09:57:15;;;;;;;;;9.67;9.67;;;;;;;;6487305;39;9051;-62
2023/01/18 10:03:31;;;;;;;;;13.67;13.67;;;;;;;;6486445;47;8965;-61
2023/01/18 10:09:48;;;;;;;;;12.33;10.67;;;;;;;;6486816;39;8950;-63
2023/01/18 10:15:55;;;;;;;;;17.25;13.00;;;;;;;;6485791;31;8968;-60
2023/01/18 10:22:15;;;;;;;;;41.33;34.33;;;;;;;;6483629;31;8940;-64
2023/01/18 10:28:48;;;;;;;;;9.67;9.67;;;;;;;;6488940;39;8891;-60
2023/01/18 10:34:51;;;;;;;;;25.67;24.67;;;;;;;;6487760;31;8976;-60
2023/01/18 10:40:59;;;;;;;;;9.33;7.67;;;;;;;;6484773;46;9043;-62
2023/01/18 10:47:02;;;;;;;;;12.33;10.67;;;;;;;;6485705;31;9017;-61
2023/01/18 10:53:26;;;;;;;;;55.00;47.00;;;;;;;;6484887;31;9060;-63
2023/01/18 10:59:39;;;;;;;;;14.67;13.67;;;;;;;;6487102;46;8940;-62
2023/01/18 11:05:44;;;;;;;;;15.67;11.67;;;;;;;;6487737;31;8964;-63
2023/01/18 11:18:10;;;;;;;;;14.33;13.33;;;;;;;;6486333;46;8968;-61
2023/01/18 11:24:23;;;;;;;;;9.00;8.00;;;;;;;;6306844;31;10001463;-61
2023/01/18 11:30:27;;;;;;;;;13.33;13.00;;;;;;;;6486997;31;8981;-63
2023/01/18 11:36:34;;;;;;;;;31.33;29.00;;;;;;;;6486462;46;8927;-63
2023/01/18 11:42:36;;;;;;;;;20.67;20.00;;;;;;;;6488111;31;9415;-61
2023/01/18 11:49:06;;;;;;;;;7.33;3.00;;;;;;;;6488909;39;8986;-63
2023/01/18 11:55:22;;;;;;;;;7.00;6.67;;;;;;;;6487835;46;8936;-59
2023/01/18 12:01:53;;;;;;;;;9.00;6.25;;;;;;;;6488291;31;9098;-62
2023/01/18 12:08:09;;;;;;;;;15.75;15.75;;;;;;;;6482036;46;8952;-62
2023/01/18 12:14:32;;;;;;;;;12.33;10.67;;;;;;;;6483810;46;9010;-63
2023/01/18 12:20:37;;;;;;;;;34.33;31.00;;;;;;;;6483622;39;9023;-62
2023/01/18 12:26:52;;;;;;;;;33.67;31.67;;;;;;;;6484973;39;8926;-62
2023/01/18 12:33:03;;;;;;;;;13.00;10.75;;;;;;;;6485261;31;9062;-63
2023/01/18 12:39:14;;;;;;;;;10.00;7.00;;;;;;;;6484865;46;9032;-62
2023/01/18 12:45:53;;;;;;;;;9.75;8.00;;;;;;;;6484593;31;8991;-61
2023/01/18 12:52:00;;;;;;;;;15.00;11.33;;;;;;;;6485910;46;8997;-61
2023/01/18 12:58:23;;;;;;;;;14.25;14.25;;;;;;;;6485556;39;8944;-60
2023/01/18 13:04:32;;;;;;;;;6.25;6.25;;;;;;;;6485794;39;9632;-61
2023/01/18 13:10:35;;;;;;;;;13.00;13.00;;;;;;;;6486649;39;9062;-61
2023/01/18 13:16:49;;;;;;;;;6.25;6.25;;;;;;;;6485510;39;9686;-62
2023/01/18 13:23:18;;;;;;;;;9.00;8.25;;;;;;;;6484581;39;8900;-61
2023/01/18 13:29:28;;;;;;;;;4.25;4.25;;;;;;;;6484026;39;8946;-62
2023/01/18 13:35:32;;;;;;;;;6.50;4.75;;;;;;;;6485586;46;8896;-62
2023/01/18 13:41:38;;;;;;;;;9.25;9.00;;;;;;;;6484350;31;9050;-62
2023/01/18 13:47:46;;;;;;;;;8.00;7.00;;;;;;;;6483613;39;8985;-64
2023/01/18 13:53:49;;;;;;;;;1.50;1.50;;;;;;;;6484873;31;9068;-62
2023/01/18 13:59:52;;;;;;;;;8.25;4.25;;;;;;;;6483584;46;8920;-63
2023/01/18 14:05:56;;;;;;;;;13.67;13.67;;;;;;;;6485774;39;9049;-61
2023/01/18 14:11:59;;;;;;;;;6.50;6.50;;;;;;;;6484576;47;9076;-61
2023/01/18 14:18:01;;;;;;;;;16.00;12.67;;;;;;;;6484930;39;9169;-63
2023/01/18 14:24:21;;;;;;;;;16.67;15.00;;;;;;;;6485545;39;8920;-61
2023/01/18 14:30:31;;;;;;;;;14.33;8.00;;;;;;;;6483361;39;9350;-61
2023/01/18 14:36:35;;;;;;;;;9.33;9.00;;;;;;;;6485629;47;8940;-61
2023/01/18 14:42:46;;;;;;;;;40.00;33.33;;;;;;;;6483432;31;8971;-64
2023/01/18 14:48:56;;;;;;;;;52.67;42.67;;;;;;;;6487088;47;8974;-61
2023/01/18 14:54:58;;;;;;;;;36.67;33.33;;;;;;;;6488105;47;8910;-62
2023/01/18 15:01:00;;;;;;;;;12.00;12.00;;;;;;;;6488468;39;8924;-62
2023/01/18 15:07:06;;;;;;;;;11.67;10.00;;;;;;;;6488609;39;8942;-59
2023/01/18 15:13:16;;;;;;;;;21.00;19.33;;;;;;;;6490613;31;8919;-65
2023/01/18 15:19:22;;;;;;;;;12.33;12.33;;;;;;;;6491254;39;8818;-61
2023/01/18 15:25:29;;;;;;;;;16.33;14.00;;;;;;;;6490740;39;9065;-59
2023/01/18 15:31:31;;;;;;;;;17.67;14.33;;;;;;;;6490060;46;8911;-61
2023/01/18 15:37:36;;;;;;;;;13.00;12.67;;;;;;;;6490503;46;8945;-62
2023/01/18 15:43:42;;;;;;;;;10.00;10.00;;;;;;;;6489622;46;8964;-61
2023/01/18 15:49:48;;;;;;;;;9.67;8.00;;;;;;;;6490650;39;8932;-61
2023/01/18 15:55:53;;;;;;;;;8.00;8.00;;;;;;;;6489467;46;8963;-61
2023/01/18 16:02:07;;;;;;;;;22.67;22.00;;;;;;;;6490282;39;9136;-62
2023/01/18 16:08:17;;;;;;;;;18.33;14.67;;;;;;;;6536203;31;8945;-62
2023/01/18 16:14:27;;;;;;;;;17.00;15.33;;;;;;;;6489977;39;9569;-60
2023/01/18 16:20:31;;;;;;;;;8.67;8.67;;;;;;;;6490306;46;8937;-62
2023/01/18 16:26:34;;;;;;;;;14.33;10.67;;;;;;;;6490597;31;9038;-62
2023/01/18 16:32:37;;;;;;;;;9.33;8.33;;;;;;;;6489937;39;8914;-63
2023/01/18 16:38:39;;;;;;;;;18.00;17.50;;;;;;;;6489819;46;9060;-62
2023/01/18 16:44:44;;;;;;;;;13.00;8.00;;;;;;;;6489381;46;9008;-62
2023/01/18 16:50:46;;;;;;;;;10.33;9.33;;;;;;;;6489346;46;9068;-62
2023/01/18 16:56:49;;;;;;;;;8.00;8.00;;;;;;;;6488698;31;8947;-61
2023/01/18 17:02:52;;;;;;;;;12.00;12.00;;;;;;;;6488732;31;9895;-62
2023/01/18 17:08:54;;;;;;;;;15.33;12.67;;;;;;;;6488458;46;8888;-61
2023/01/18 17:14:56;;;;;;;;;16.33;13.00;;;;;;;;6488084;39;9040;-61
2023/01/18 17:20:59;;;;;;;;;10.00;8.33;;;;;;;;6488349;46;8912;-60
2023/01/18 17:27:01;;;;;;;;;9.33;8.33;;;;;;;;6488051;39;9018;-60
2023/01/18 17:33:05;;;;;;;;;16.67;11.67;;;;;;;;6487842;46;8935;-60
2023/01/18 17:39:09;;;;;;;;;17.67;17.67;;;;;;;;6488438;31;9005;-61
2023/01/18 17:45:17;;;;;;;;;10.67;10.67;;;;;;;;6488816;31;9488;-60
2023/01/18 17:51:20;;;;;;;;;15.33;12.00;;;;;;;;6489195;39;9072;-61
2023/01/18 17:57:23;;;;;;;;;12.00;10.33;;;;;;;;6487731;39;9053;-60
2023/01/18 18:03:25;;;;;;;;;11.33;10.00;;;;;;;;6487505;46;8933;-61
2023/01/18 18:09:28;;;;;;;;;14.67;12.33;;;;;;;;6488580;39;8905;-62
2023/01/18 18:15:30;;;;;;;;;16.00;13.00;;;;;;;;6487228;47;8866;-60
2023/01/18 18:21:32;;;;;;;;;14.00;13.00;;;;;;;;6488265;39;8984;-62
2023/01/18 18:27:34;;;;;;;;;18.00;14.00;;;;;;;;6488021;39;8957;-61
2023/01/18 18:33:52;;;;;;;;;15.00;12.33;;;;;;;;6486940;47;8928;-61
2023/01/18 18:39:54;;;;;;;;;29.67;27.33;;;;;;;;6487302;39;9130;-61
2023/01/18 18:45:57;;;;;;;;;24.00;20.33;;;;;;;;6489046;39;8868;-64
2023/01/18 18:51:59;;;;;;;;;17.33;17.33;;;;;;;;6490273;39;8969;-61
2023/01/18 18:58:01;;;;;;;;;20.67;20.33;;;;;;;;6489456;39;9512;-60
2023/01/18 19:04:04;;;;;;;;;21.00;19.00;;;;;;;;6489705;39;9029;-61
2023/01/18 19:10:06;;;;;;;;;18.67;18.67;;;;;;;;6490062;39;8864;-61
2023/01/18 19:16:09;;;;;;;;;25.67;23.00;;;;;;;;6489758;39;8965;-60
2023/01/18 19:22:12;;;;;;;;;25.33;22.67;;;;;;;;6490433;31;8884;-61
2023/01/18 19:28:16;;;;;;;;;19.67;19.00;;;;;;;;6489042;31;10221;-59
2023/01/18 19:34:20;;;;;;;;;27.00;23.33;;;;;;;;6489544;31;8912;-61
2023/01/18 19:40:24;;;;;;;;;28.67;25.67;;;;;;;;6490289;31;8988;-62
2023/01/18 19:46:26;;;;;;;;;31.00;22.00;;;;;;;;6489784;39;9539;-61
2023/01/18 19:52:30;;;;;;;;;25.33;23.00;;;;;;;;6489576;31;9061;-61
2023/01/18 19:58:35;;;;;;;;;30.33;26.67;;;;;;;;6489270;31;8864;-62
2023/01/18 20:04:37;;;;;;;;;28.00;26.00;;;;;;;;6489613;39;9045;-60
2023/01/18 20:10:39;;;;;;;;;26.33;24.67;;;;;;;;6489960;31;8904;-60
2023/01/18 20:16:42;;;;;;;;;36.00;32.67;;;;;;;;6488940;39;8980;-63
2023/01/18 20:22:46;;;;;;;;;33.33;27.67;;;;;;;;6489028;39;8950;-63
2023/01/18 20:28:53;;;;;;;;;38.67;33.67;;;;;;;;6488723;39;8889;-61
2023/01/18 20:34:55;;;;;;;;;41.75;35.00;;;;;;;;6488628;46;8869;-61
2023/01/18 20:40:58;;;;;;;;;43.25;37.75;;;;;;;;6489756;39;8881;-60
2023/01/18 20:47:02;;;;;;;;;37.00;34.00;;;;;;;;6488004;39;9047;-60
2023/01/18 20:53:04;;;;;;;;;31.67;29.00;;;;;;;;6488166;39;8950;-61
2023/01/18 20:59:09;;;;;;;;;29.67;25.67;;;;;;;;6487522;46;8876;-62
2023/01/18 21:05:11;;;;;;;;;26.33;21.00;;;;;;;;6487291;46;8992;-61
2023/01/18 21:11:16;;;;;;;;;27.33;24.00;;;;;;;;6489319;31;8984;-60
2023/01/18 21:17:19;;;;;;;;;33.00;31.33;;;;;;;;6488181;46;8894;-60
2023/01/18 21:23:24;;;;;;;;;30.67;27.33;;;;;;;;6489622;31;9428;-61
2023/01/18 21:29:29;;;;;;;;;29.00;26.25;;;;;;;;6488566;39;8866;-61
2023/01/18 21:35:32;;;;;;;;;36.00;29.00;;;;;;;;6488738;39;8868;-60
2023/01/18 21:47:59;;;;;;;;;34.75;32.75;;;;;;;;6488617;39;8997;-61
2023/01/18 21:54:14;;;;;;;;;35.75;33.75;;;;;;;;6489746;31;9518;-60
2023/01/18 22:00:17;;;;;;;;;37.75;30.75;;;;;;;;6488263;31;9325;-61
2023/01/18 22:06:19;;;;;;;;;37.75;32.75;;;;;;;;6489034;39;9629;-60
2023/01/18 22:12:21;;;;;;;;;37.25;34.75;;;;;;;;6488300;39;9031;-60
2023/01/18 22:18:24;;;;;;;;;43.25;38.75;;;;;;;;6487927;39;8890;-60
2023/01/18 22:24:26;;;;;;;;;44.00;39.00;;;;;;;;6487960;39;8943;-61
2023/01/18 22:30:28;;;;;;;;;44.25;39.25;;;;;;;;6488048;39;9012;-60
2023/01/18 22:36:32;;;;;;;;;37.33;33.67;;;;;;;;6488395;39;8920;-62
2023/01/18 22:42:34;;;;;;;;;48.50;40.50;;;;;;;;6487416;47;9082;-61
2023/01/18 22:48:36;;;;;;;;;45.00;38.75;;;;;;;;6487835;39;8956;-60
2023/01/18 22:54:40;;;;;;;;;38.00;36.25;;;;;;;;6486495;47;9115;-60
2023/01/18 23:00:51;;;;;;;;;37.25;33.50;;;;;;;;6486852;39;8900;-61
2023/01/18 23:06:59;;;;;;;;;43.75;35.50;;;;;;;;6486392;39;8858;-60
2023/01/18 23:13:02;;;;;;;;;33.00;28.67;;;;;;;;6485721;31;8948;-59
2023/01/18 23:19:04;;;;;;;;;31.00;27.00;;;;;;;;6486029;39;9568;-60
2023/01/18 23:25:07;;;;;;;;;32.25;28.25;;;;;;;;6485696;39;8868;-61
2023/01/18 23:31:12;;;;;;;;;31.25;31.25;;;;;;;;6487533;39;9534;-60
2023/01/18 23:37:15;;;;;;;;;26.75;24.75;;;;;;;;6488039;39;9457;-61
2023/01/18 23:55:59;;;;;;;;;28.50;22.75;;;;;;;;6488222;39;9744;-60
